Time;durP1;ratioP1;P1;durP2;ratioP2;P2;SDS_P1;SDS_P2;PMS_P1;PMS_P2;Temp;Humidity;BMP_temperature;BMP_pressure;BME280_temperature;BME280_humidity;BME280_pressure;Samples;Min_cycle;Max_cycle;Signal;HPM_P1;HPM_P2
2022/02/15 00:01:53;;;;;;;12.77;6.55;;;;;;;7.32;93.60;99659.22;6236033;23;20036;-89
2022/02/15 00:04:20;;;;;;;12.68;7.10;;;;;;;7.19;93.22;99631.75;6237457;23;20062;-90
2022/02/15 00:06:48;;;;;;;17.02;8.25;;;;;;;7.20;93.17;99632.59;6237161;23;20020;-93
2022/02/15 00:09:38;;;;;;;11.27;7.35;;;;;;;7.31;93.46;99661.91;6132377;23;20032;-92
2022/02/15 00:12:07;;;;;;;11.98;7.95;;;;;;;7.03;93.98;99625.44;6163645;23;20021;-90
2022/02/15 00:14:34;;;;;;;11.50;8.07;;;;;;;6.99;94.69;99637.03;6169043;23;20184;-89
2022/02/15 00:17:01;;;;;;;12.32;8.50;;;;;;;7.04;94.85;99642.97;6143206;23;20069;-91
2022/02/15 00:19:28;;;;;;;11.63;7.82;;;;;;;6.97;94.78;99639.72;6171325;23;20021;-88
2022/02/15 00:21:56;;;;;;;15.40;9.05;;;;;;;6.95;95.12;99640.72;6151721;23;20017;-90
2022/02/15 00:24:24;;;;;;;13.23;8.38;;;;;;;7.00;95.34;99655.38;6153611;23;20087;-88
2022/02/15 00:26:53;;;;;;;12.63;8.82;;;;;;;7.11;95.53;99652.28;6153685;23;20085;-89
2022/02/15 00:29:21;;;;;;;12.32;8.18;;;;;;;7.06;95.68;99651.66;6153933;23;20659;-89
2022/02/15 00:31:51;;;;;;;12.38;9.05;;;;;;;7.05;95.97;99665.72;6151058;23;20031;-89
2022/02/15 00:34:18;;;;;;;14.30;9.05;;;;;;;6.82;96.14;99637.78;6203709;23;20526;-89
2022/02/15 00:36:45;;;;;;;13.32;8.82;;;;;;;6.97;96.80;99687.09;6245690;23;20067;-90
2022/02/15 00:39:11;;;;;;;14.45;9.23;;;;;;;6.59;97.14;99620.38;6245803;23;20384;-91
2022/02/15 00:41:49;;;;;;;14.43;8.85;;;;;;;6.90;97.28;99687.44;6217763;23;20024;-90
2022/02/15 00:44:15;;;;;;;13.13;9.65;;;;;;;6.78;97.84;99673.03;6215097;23;20016;-89
2022/02/15 00:46:42;;;;;;;12.18;8.30;;;;;;;6.85;97.62;99681.53;6240444;23;20018;-92
2022/02/15 00:49:09;;;;;;;13.82;9.35;;;;;;;6.66;98.21;99647.25;6241507;23;20020;-89
2022/02/15 00:51:36;;;;;;;12.00;9.00;;;;;;;6.67;97.86;99665.59;6239936;23;20367;-89
2022/02/15 00:54:18;;;;;;;13.30;9.32;;;;;;;6.67;98.24;99670.84;6242788;23;20078;-90
2022/02/15 00:56:46;;;;;;;12.60;9.57;;;;;;;6.72;98.86;99685.59;6237845;23;20024;-90
2022/02/15 00:59:14;;;;;;;14.77;9.57;;;;;;;6.51;98.83;99658.41;6237422;23;20020;-92
2022/02/15 01:01:43;;;;;;;16.15;9.98;;;;;;;6.52;99.24;99661.00;6239856;23;20023;-90
2022/02/15 01:04:11;;;;;;;15.18;9.95;;;;;;;6.42;100.00;99640.41;6238080;23;20091;-91
2022/02/15 01:06:38;;;;;;;15.85;9.50;;;;;;;6.65;99.91;99677.97;6212582;23;20016;-90
2022/02/15 01:09:08;;;;;;;17.38;9.88;;;;;;;6.68;98.87;99661.19;6241636;23;20320;-90
2022/02/15 01:11:35;;;;;;;15.18;10.07;;;;;;;6.47;98.99;99641.06;6215281;23;20020;-89
2022/02/15 01:14:01;;;;;;;13.13;9.55;;;;;;;6.60;99.02;99669.44;6237364;23;20020;-92
2022/02/15 01:16:28;;;;;;;14.90;10.80;;;;;;;6.63;99.29;99679.78;6240100;23;20462;-91
2022/02/15 01:18:56;;;;;;;14.98;10.90;;;;;;;6.58;99.40;99666.00;6240744;23;20108;-92
2022/02/15 01:21:24;;;;;;;16.88;11.00;;;;;;;6.76;99.54;99684.56;6238170;23;20050;-90
2022/02/15 01:23:52;;;;;;;15.55;10.95;;;;;;;6.75;99.51;99675.81;6235485;23;20704;-91
2022/02/15 01:26:19;;;;;;;17.30;12.07;;;;;;;6.87;99.05;99687.59;6239281;23;20083;-92
2022/02/15 01:28:46;;;;;;;18.95;12.63;;;;;;;6.78;99.21;99678.28;6236466;23;20017;-90
2022/02/15 01:31:14;;;;;;;16.83;11.98;;;;;;;6.73;99.25;99666.25;6235767;23;20031;-90
2022/02/15 01:33:45;;;;;;;19.58;12.15;;;;;;;6.89;99.11;99696.28;6237656;23;20024;-89
2022/02/15 01:36:13;;;;;;;17.90;12.80;;;;;;;6.78;99.13;99672.16;6241155;23;20026;-92
2022/02/15 01:38:50;;;;;;;17.88;12.60;;;;;;;6.75;98.71;99661.81;6240562;23;20024;-91
2022/02/15 01:41:19;;;;;;;18.13;12.93;;;;;;;6.88;98.54;99681.41;6241369;23;20760;-90
2022/02/15 01:43:50;;;;;;;17.97;13.10;;;;;;;6.95;98.77;99688.94;6216360;23;20020;-91
2022/02/15 01:46:20;;;;;;;18.13;12.48;;;;;;;6.79;98.14;99663.34;6242801;23;20027;-89
2022/02/15 01:48:47;;;;;;;20.73;12.80;;;;;;;6.71;97.71;99645.28;6235259;23;20103;-91
2022/02/15 01:51:17;;;;;;;20.10;13.07;;;;;;;6.79;98.03;99665.97;6238214;23;20019;-89
2022/02/15 01:53:47;;;;;;;20.05;13.95;;;;;;;6.85;98.03;99679.75;6236304;23;20079;-90
2022/02/15 01:56:15;;;;;;;22.80;14.37;;;;;;;6.67;98.18;99656.84;6240374;23;20020;-91
2022/02/15 01:58:42;;;;;;;19.13;14.02;;;;;;;6.79;98.53;99681.78;6213143;23;20434;-90
2022/02/15 02:01:09;;;;;;;19.52;14.75;;;;;;;6.73;98.50;99666.25;6238221;23;20082;-90
2022/02/15 02:03:50;;;;;;;23.33;16.05;;;;;;;6.76;98.52;99676.66;6241058;23;20062;-90
2022/02/15 02:06:16;;;;;;;24.48;16.58;;;;;;;6.81;99.25;99701.84;6242259;23;20016;-89
2022/02/15 02:08:44;;;;;;;25.77;17.30;;;;;;;6.40;99.91;99640.47;6242686;23;20020;-90
2022/02/15 02:11:17;;;;;;;23.50;16.17;;;;;;;6.77;100.00;99704.69;6242402;23;20119;-91
2022/02/15 02:13:44;;;;;;;25.90;16.80;;;;;;;6.68;100.00;99692.75;6250249;23;20020;-89
2022/02/15 02:16:11;;;;;;;22.70;16.33;;;;;;;6.73;99.31;99677.66;6243714;23;20020;-91
2022/02/15 02:18:38;;;;;;;29.52;16.83;;;;;;;6.56;99.06;99649.44;6243780;23;20039;-89
2022/02/15 02:21:06;;;;;;;24.05;16.35;;;;;;;6.76;99.95;99692.47;6244056;23;20058;-90
2022/02/15 02:23:34;;;;;;;22.35;16.25;;;;;;;6.72;99.35;99683.81;6243290;23;20012;-90
2022/02/15 02:26:02;;;;;;;23.50;16.48;;;;;;;6.69;99.91;99683.94;6243499;23;20012;-91
2022/02/15 02:28:31;;;;;;;24.15;17.33;;;;;;;6.33;100.00;99623.22;6220542;23;20017;-92
2022/02/15 02:30:58;;;;;;;26.60;16.45;;;;;;;6.61;99.66;99646.59;6244847;23;20091;-87
2022/02/15 02:33:25;;;;;;;25.95;16.70;;;;;;;6.76;99.48;99685.41;6246111;23;20028;-89
2022/02/15 02:36:02;;;;;;;25.60;17.15;;;;;;;6.76;99.81;99681.94;6244379;23;20099;-90
2022/02/15 02:38:29;;;;;;;23.52;16.92;;;;;;;6.75;99.89;99683.72;6246243;23;20016;-89
2022/02/15 02:40:58;;;;;;;23.05;15.93;;;;;;;6.76;99.84;99689.81;6244631;23;20381;-91
2022/02/15 02:43:28;;;;;;;24.95;16.55;;;;;;;6.54;99.64;99659.16;6244384;23;20026;-90
2022/02/15 02:45:55;;;;;;;28.42;17.50;;;;;;;6.61;100.00;99671.09;6242242;23;20607;-90
2022/02/15 02:48:22;;;;;;;26.25;16.77;;;;;;;6.51;100.00;99658.41;6242259;23;20043;-90
2022/02/15 02:50:50;;;;;;;26.77;17.05;;;;;;;6.56;100.00;99670.47;6241223;23;20024;-91
2022/02/15 02:53:18;;;;;;;22.80;15.98;;;;;;;6.34;100.00;99636.31;6242138;23;20321;-91
2022/02/15 02:55:47;;;;;;;24.17;16.45;;;;;;;6.36;100.00;99645.91;6242895;23;20079;-90
2022/02/15 02:58:14;;;;;;;23.52;15.68;;;;;;;6.49;100.00;99671.63;6216882;23;20066;-89
2022/02/15 03:00:42;;;;;;;23.00;16.08;;;;;;;6.59;100.00;99678.25;6242240;23;20103;-90
2022/02/15 03:03:12;;;;;;;23.70;16.33;;;;;;;6.49;99.84;99655.84;6241587;23;20020;-89
2022/02/15 03:05:40;;;;;;;22.35;15.82;;;;;;;6.50;99.46;99660.19;6243351;23;20095;-88
2022/02/15 03:08:08;;;;;;;25.17;17.17;;;;;;;6.51;100.00;99656.66;6242495;23;20024;-88
2022/02/15 03:10:35;;;;;;;25.90;17.45;;;;;;;6.54;100.00;99669.66;6241350;23;20451;-89
2022/02/15 03:13:03;;;;;;;24.33;16.55;;;;;;;6.49;100.00;99670.78;6238976;23;20020;-89
2022/02/15 03:15:30;;;;;;;26.08;18.60;;;;;;;6.29;100.00;99637.44;6240334;23;20105;-89
2022/02/15 03:17:58;;;;;;;24.50;17.23;;;;;;;6.17;100.00;99625.63;6240940;23;20020;-88
2022/02/15 03:20:28;;;;;;;25.77;17.63;;;;;;;6.25;100.00;99655.13;6241160;23;20168;-89
2022/02/15 03:22:55;;;;;;;27.08;17.95;;;;;;;6.41;100.00;99691.28;6242927;23;20038;-89
2022/02/15 03:25:23;;;;;;;24.70;16.45;;;;;;;6.27;100.00;99676.94;6244265;23;20016;-89
2022/02/15 03:27:51;;;;;;;24.42;15.68;;;;;;;6.47;99.66;99705.03;6244789;23;20024;-88
2022/02/15 03:30:19;;;;;;;21.75;15.05;;;;;;;6.36;99.85;99694.09;6243187;23;20524;-89
2022/02/15 03:32:46;;;;;;;24.33;15.32;;;;;;;6.35;99.73;99692.38;6243278;23;20028;-89
2022/02/15 03:35:13;;;;;;;24.27;15.00;;;;;;;6.23;99.62;99666.59;6245211;23;20067;-89
2022/02/15 03:37:44;;;;;;;22.40;15.52;;;;;;;6.24;99.12;99691.97;6238950;23;20016;-89
2022/02/15 03:40:11;;;;;;;20.20;13.93;;;;;;;6.31;98.74;99704.78;6244744;23;20047;-90
2022/02/15 03:45:23;;;;;;;19.25;13.20;;;;;;;6.48;98.28;99722.53;6249484;23;20020;-91
2022/02/15 03:47:52;;;;;;;17.70;12.48;;;;;;;6.44;98.06;99713.06;6245997;23;20020;-88
2022/02/15 03:50:19;;;;;;;18.35;12.88;;;;;;;6.56;97.37;99728.34;6247815;23;20016;-91
2022/02/15 03:52:46;;;;;;;18.10;11.75;;;;;;;6.28;96.83;99683.06;6248909;23;20050;-92
2022/02/15 03:55:13;;;;;;;15.43;11.23;;;;;;;6.47;97.20;99719.94;6225888;23;20026;-87
2022/02/15 03:57:41;;;;;;;16.38;11.70;;;;;;;6.42;96.64;99700.91;6248608;23;20050;-89
2022/02/15 04:00:09;;;;;;;17.58;11.70;;;;;;;6.45;96.29;99711.28;6245261;23;20020;-88
2022/02/15 04:02:36;;;;;;;16.92;11.93;;;;;;;6.49;96.31;99720.75;6244760;23;20020;-89
2022/02/15 04:05:06;;;;;;;16.05;11.32;;;;;;;6.44;96.03;99717.47;6246661;23;20099;-91
2022/02/15 04:07:33;;;;;;;16.60;11.80;;;;;;;6.40;96.08;99722.00;6218799;23;20059;-89
2022/02/15 04:10:02;;;;;;;19.70;12.27;;;;;;;6.20;96.24;99700.91;6243716;23;20074;-90
2022/02/15 04:12:29;;;;;;;20.02;11.82;;;;;;;6.54;96.36;99756.47;6218847;23;20379;-89
2022/02/15 04:14:56;;;;;;;16.80;12.55;;;;;;;6.33;96.47;99715.25;6246092;23;20043;-92
2022/02/15 04:17:23;;;;;;;17.23;12.38;;;;;;;6.39;96.49;99730.78;6245542;23;20035;-90
2022/02/15 04:19:50;;;;;;;20.35;11.88;;;;;;;6.47;96.55;99744.47;6245465;23;20048;-89
2022/02/15 04:22:27;;;;;;;18.73;11.65;;;;;;;6.59;96.54;99765.03;6244495;23;20027;-89
2022/02/15 04:24:54;;;;;;;16.33;11.32;;;;;;;6.53;96.18;99757.38;6218509;23;20016;-89
2022/02/15 04:27:22;;;;;;;20.67;12.10;;;;;;;6.38;96.32;99731.72;6217293;23;20023;-93
2022/02/15 04:29:49;;;;;;;15.48;10.70;;;;;;;6.38;95.96;99739.59;6242141;23;20012;-93
2022/02/15 04:32:17;;;;;;;17.92;11.38;;;;;;;6.53;96.05;99760.03;6242337;23;20632;-89
2022/02/15 04:34:44;;;;;;;17.42;11.45;;;;;;;6.55;96.00;99765.22;6245043;23;20531;-90
2022/02/15 04:37:12;;;;;;;18.15;11.50;;;;;;;6.42;96.04;99746.47;6245702;23;20087;-89
2022/02/15 04:39:44;;;;;;;16.23;10.93;;;;;;;6.37;96.24;99751.03;6245655;23;20086;-92
2022/02/15 04:42:14;;;;;;;19.98;11.45;;;;;;;6.22;95.81;99720.97;6242881;23;20016;-88
2022/02/15 04:44:44;;;;;;;14.77;10.70;;;;;;;6.44;96.04;99765.66;6217078;23;20341;-89
2022/02/15 04:47:11;;;;;;;17.48;11.40;;;;;;;6.50;96.39;99775.06;6243416;23;20028;-90
2022/02/15 04:49:38;;;;;;;17.85;11.60;;;;;;;6.32;96.42;99753.84;6243471;23;20039;-88
2022/02/15 04:52:05;;;;;;;16.85;11.25;;;;;;;6.40;96.41;99763.22;6239951;23;20023;-92
2022/02/15 04:54:32;;;;;;;18.80;11.52;;;;;;;6.49;96.51;99786.50;6238098;23;20043;-90
2022/02/15 04:56:59;;;;;;;16.38;11.10;;;;;;;6.36;96.62;99773.00;6239858;23;20762;-89
2022/02/15 04:59:28;;;;;;;17.15;11.40;;;;;;;6.23;96.42;99753.34;6241420;23;20055;-90
2022/02/15 05:02:00;;;;;;;18.92;11.80;;;;;;;6.50;96.37;99796.09;6240070;23;20016;-89
2022/02/15 05:07:17;;;;;;;16.17;11.57;;;;;;;6.41;96.79;99799.97;6242449;23;20095;-91
2022/02/15 05:09:45;;;;;;;19.80;13.20;;;;;;;6.31;96.67;99783.69;6242445;23;20024;-88
2022/02/15 05:12:13;;;;;;;17.60;12.48;;;;;;;6.54;97.24;99808.22;6241221;23;20026;-89
2022/02/15 05:14:40;;;;;;;16.67;12.48;;;;;;;6.48;96.72;99790.91;6242896;23;20039;-92
2022/02/15 05:17:09;;;;;;;16.65;12.60;;;;;;;6.45;96.96;99771.78;6242752;23;20074;-91
2022/02/15 05:19:35;;;;;;;17.75;12.05;;;;;;;6.53;96.64;99796.84;6241625;23;20020;-89
2022/02/15 05:22:02;;;;;;;19.52;12.13;;;;;;;6.37;96.35;99774.69;6238209;23;20047;-89
2022/02/15 05:24:30;;;;;;;19.98;12.82;;;;;;;6.46;96.81;99779.59;6212181;23;20020;-89
2022/02/15 05:26:57;;;;;;;18.55;12.93;;;;;;;6.32;96.95;99758.25;6214920;23;20020;-91
2022/02/15 05:29:24;;;;;;;18.60;12.90;;;;;;;6.57;96.74;99806.34;6240032;23;20080;-89
2022/02/15 05:31:52;;;;;;;18.67;13.07;;;;;;;6.45;96.36;99784.94;6243436;23;20028;-91
2022/02/15 05:34:19;;;;;;;19.65;13.60;;;;;;;6.25;96.76;99762.06;6243522;23;20023;-88
2022/02/15 05:36:46;;;;;;;19.63;13.85;;;;;;;6.40;97.13;99782.47;6241970;23;20012;-89
2022/02/15 05:39:13;;;;;;;20.67;13.30;;;;;;;6.31;97.38;99775.78;6245058;23;20374;-89
2022/02/15 05:41:45;;;;;;;20.42;13.90;;;;;;;6.16;97.54;99751.88;6217637;23;20081;-92
2022/02/15 05:44:12;;;;;;;18.70;13.85;;;;;;;6.22;97.93;99752.50;6242466;23;20047;-90
2022/02/15 05:46:39;;;;;;;21.30;14.20;;;;;;;6.50;98.09;99796.09;6243792;23;20016;-90
2022/02/15 05:49:07;;;;;;;20.95;13.68;;;;;;;6.51;98.11;99808.34;6255973;23;20035;-92
2022/02/15 05:51:36;;;;;;;20.58;13.60;;;;;;;6.39;98.60;99796.53;6259782;23;20028;-90
2022/02/15 05:54:03;;;;;;;19.75;13.50;;;;;;;6.46;98.45;99807.66;6252411;23;20078;-91
2022/02/15 05:56:32;;;;;;;21.65;13.70;;;;;;;6.39;98.45;99806.19;6258918;23;20012;-93
2022/02/15 05:59:01;;;;;;;21.55;14.57;;;;;;;6.41;98.69;99804.38;6246006;23;20020;-89
2022/02/15 06:01:28;;;;;;;21.25;14.55;;;;;;;6.45;98.88;99813.88;6242543;23;20024;-89
2022/02/15 06:04:12;;;;;;;20.55;14.35;;;;;;;6.58;98.90;99836.13;6232950;23;20394;-89
2022/02/15 06:06:40;;;;;;;23.23;13.50;;;;;;;6.40;98.44;99798.25;6215780;23;20109;-91
2022/02/15 06:09:11;;;;;;;;;;;;;;;6.65;97.80;99837.59;6240331;23;20027;-88
2022/02/15 06:11:39;;;;;;;19.38;13.63;;;;;;;6.45;97.93;99801.56;6241510;23;20307;-89
2022/02/15 06:14:06;;;;;;;18.42;13.30;;;;;;;6.49;98.35;99811.03;6215946;23;20020;-88
2022/02/15 06:16:33;;;;;;;18.77;12.85;;;;;;;6.49;97.98;99810.16;6244232;23;20063;-90
2022/02/15 06:19:01;;;;;;;20.48;13.63;;;;;;;6.60;97.47;99818.53;6241185;23;20019;-89
2022/02/15 06:21:29;;;;;;;18.13;12.93;;;;;;;6.65;98.02;99833.19;6241415;23;20126;-93
2022/02/15 06:23:57;;;;;;;19.52;13.18;;;;;;;6.67;97.85;99839.25;6240890;23;20012;-88
2022/02/15 06:26:41;;;;;;;18.48;12.65;;;;;;;6.60;96.95;99824.63;6244553;23;20016;-93
2022/02/15 06:29:08;;;;;;;16.85;11.45;;;;;;;6.44;96.57;99810.38;6245341;23;20023;-95
2022/02/15 06:31:41;;;;;;;18.50;13.00;;;;;;;6.67;97.23;99862.91;6242247;23;20076;-96
2022/02/15 06:34:11;;;;;;;17.75;12.80;;;;;;;6.29;97.18;99805.72;6246349;23;20179;-93
2022/02/15 06:36:43;;;;;;;19.38;12.18;;;;;;;6.31;97.73;99823.13;6255386;23;20020;-95
2022/02/15 06:39:21;;;;;;;18.23;13.00;;;;;;;6.39;97.54;99833.34;6256465;23;20028;-92
2022/02/15 06:41:49;;;;;;;18.60;12.93;;;;;;;6.42;97.92;99840.28;6254167;23;20012;-91
2022/02/15 06:44:18;;;;;;;19.35;12.90;;;;;;;6.25;97.96;99825.16;6221830;23;20440;-93
2022/02/15 06:46:45;;;;;;;17.35;12.68;;;;;;;6.48;97.60;99856.66;6246311;23;20614;-89
2022/02/15 06:49:13;;;;;;;18.33;12.63;;;;;;;6.57;97.77;99874.72;6244598;23;20044;-90
2022/02/15 06:51:41;;;;;;;20.58;13.32;;;;;;;6.47;97.85;99868.09;6219776;23;20020;-90
2022/02/15 06:54:08;;;;;;;20.98;13.23;;;;;;;6.57;98.02;99902.81;6245870;23;20016;-89
2022/02/15 06:56:57;;;;;;;19.15;12.40;;;;;;;6.47;97.91;99889.13;6246067;23;20023;-90
2022/02/15 06:59:43;;;;;;;20.42;12.68;;;;;;;6.32;97.57;99858.16;6229869;23;20028;-90
2022/02/15 07:02:21;;;;;;;18.80;12.95;;;;;;;6.23;96.85;99840.97;6247032;23;20452;-91
2022/02/15 07:04:48;;;;;;;20.25;13.57;;;;;;;6.61;97.09;99918.41;6246355;23;20026;-89
2022/02/15 07:07:15;;;;;;;19.90;12.98;;;;;;;6.44;97.25;99894.53;6245327;23;20066;-90
2022/02/15 07:09:51;;;;;;;19.20;13.07;;;;;;;6.24;97.79;99855.84;6246082;23;20832;-89
2022/02/15 07:12:20;;;;;;;18.55;12.43;;;;;;;6.64;97.61;99926.19;6248185;23;20312;-89
2022/02/15 07:14:47;;;;;;;21.08;13.10;;;;;;;6.58;97.13;99913.28;6248595;23;20069;-92
2022/02/15 07:17:15;;;;;;;19.98;13.57;;;;;;;6.50;96.97;99898.69;6247233;23;20086;-91
2022/02/15 07:19:42;;;;;;;19.98;12.18;;;;;;;6.67;96.88;99931.31;6246608;23;20759;-93
2022/02/15 07:22:10;;;;;;;17.40;12.30;;;;;;;6.81;96.59;99945.72;6246261;23;20050;-93
2022/02/15 07:24:39;;;;;;;18.33;12.43;;;;;;;6.65;96.46;99914.75;6248019;23;20524;-90
2022/02/15 07:27:08;;;;;;;19.58;12.75;;;;;;;6.67;96.49;99923.44;6248220;23;20340;-89
2022/02/15 07:29:35;;;;;;;18.65;12.27;;;;;;;6.56;96.76;99901.97;6246333;23;20332;-89
2022/02/15 07:32:02;;;;;;;18.65;13.05;;;;;;;6.84;96.63;99940.34;6226248;23;20470;-89
2022/02/15 07:34:32;;;;;;;19.10;13.35;;;;;;;6.95;95.98;99953.94;6247599;23;20020;-91
2022/02/15 07:37:00;;;;;;;20.38;12.80;;;;;;;6.94;95.25;99946.97;6249453;23;20019;-90
2022/02/15 07:39:28;;;;;;;16.20;11.85;;;;;;;6.82;94.96;99913.22;6248521;23;20028;-90
2022/02/15 07:41:59;;;;;;;18.15;12.00;;;;;;;6.68;95.40;99897.97;6221343;23;20055;-92
2022/02/15 07:44:29;;;;;;;17.25;11.55;;;;;;;6.88;94.70;99944.59;6220601;23;20099;-89
2022/02/15 07:46:59;;;;;;;18.33;12.13;;;;;;;6.86;94.74;99946.41;6247378;23;20020;-91
2022/02/15 07:49:33;;;;;;;16.00;11.35;;;;;;;6.67;94.59;99922.56;6247846;23;20436;-91
2022/02/15 07:52:05;;;;;;;16.63;10.57;;;;;;;7.07;94.11;99987.72;6221236;23;20048;-90
2022/02/15 07:54:32;;;;;;;17.73;11.02;;;;;;;6.88;94.05;99974.41;6246258;23;20054;-90
2022/02/15 07:57:10;;;;;;;15.27;10.93;;;;;;;6.54;94.93;99916.06;6247971;23;20020;-89
2022/02/15 07:59:42;;;;;;;13.15;9.85;;;;;;;6.56;95.03;99922.13;6246784;23;20052;-90
2022/02/15 08:02:09;;;;;;;16.17;10.50;;;;;;;6.59;94.46;99933.41;6220799;23;20020;-90
2022/02/15 08:04:36;;;;;;;17.58;10.75;;;;;;;6.78;94.27;99961.63;6246202;23;20086;-92
2022/02/15 08:07:04;;;;;;;16.90;10.88;;;;;;;6.80;95.00;99976.44;6247001;23;20016;-90
2022/02/15 08:09:39;;;;;;;16.00;10.98;;;;;;;6.91;95.30;100007.63;6221685;23;20482;-92
2022/02/15 08:12:16;;;;;;;16.55;10.70;;;;;;;6.58;95.95;99965.91;6244398;23;20027;-90
2022/02/15 08:15:22;;;;;;;17.30;11.45;;;;;;;6.66;96.14;99984.00;6253353;23;20094;-91
2022/02/15 08:17:50;;;;;;;16.30;11.63;;;;;;;6.52;96.71;99949.47;6253777;23;20444;-94
2022/02/15 08:20:17;;;;;;;19.70;12.27;;;;;;;6.55;96.63;99942.31;6239192;23;20209;-92
2022/02/15 08:22:44;;;;;;;17.83;12.35;;;;;;;6.98;96.45;100014.38;6264160;23;20018;-91
2022/02/15 08:25:13;;;;;;;17.77;12.07;;;;;;;6.82;96.60;99984.28;6249969;23;20680;-92
2022/02/15 08:27:40;;;;;;;20.63;12.32;;;;;;;6.68;96.55;99964.63;6223046;23;20027;-91
2022/02/15 08:30:11;;;;;;;18.38;12.60;;;;;;;7.09;96.48;100024.47;6251697;23;20026;-91
2022/02/15 08:32:40;;;;;;;19.92;13.00;;;;;;;7.00;96.63;100010.78;6251703;23;20099;-92
2022/02/15 08:35:10;;;;;;;19.58;12.82;;;;;;;7.01;96.44;99998.47;6220680;23;20589;-90
2022/02/15 08:37:37;;;;;;;19.55;12.77;;;;;;;7.16;95.77;100015.44;6247150;23;20016;-90
2022/02/15 08:40:06;;;;;;;20.30;12.98;;;;;;;7.08;95.82;100005.22;6246300;23;20023;-91
2022/02/15 08:42:41;;;;;;;19.27;12.57;;;;;;;7.11;95.50;100018.25;6245260;23;20028;-92
2022/02/15 08:45:10;;;;;;;20.58;13.13;;;;;;;7.01;95.61;99990.56;6243652;23;20016;-93
2022/02/15 08:47:39;;;;;;;20.20;13.10;;;;;;;7.23;95.57;100028.31;6243923;23;20012;-91
2022/02/15 08:50:21;;;;;;;20.45;13.68;;;;;;;7.12;95.46;100004.16;6221088;23;20055;-91
2022/02/15 08:52:48;;;;;;;18.63;13.07;;;;;;;7.18;95.16;100001.28;6251903;23;20084;-91
2022/02/15 08:55:18;;;;;;;21.70;13.35;;;;;;;7.39;95.13;100034.69;6258980;23;20047;-93
2022/02/15 08:57:51;;;;;;;20.98;13.68;;;;;;;7.66;95.63;100042.41;6261517;23;20046;-92
2022/02/15 09:00:19;;;;;;;20.77;13.63;;;;;;;7.45;93.92;99986.16;6234346;23;20023;-89
2022/02/15 09:02:45;;;;;;;20.70;12.75;;;;;;;7.71;92.45;100019.38;6250404;23;20016;-92
2022/02/15 09:05:13;;;;;;;19.55;13.15;;;;;;;7.91;92.30;100053.66;6216561;23;20016;-89
2022/02/15 09:07:40;;;;;;;20.90;13.02;;;;;;;7.67;91.87;100023.03;6245406;23;20016;-90
2022/02/15 09:10:15;;;;;;;18.02;12.45;;;;;;;7.69;92.36;100021.22;6245787;23;20016;-90
2022/02/15 09:12:43;;;;;;;18.83;13.30;;;;;;;7.82;92.03;100029.47;6219312;23;20012;-90
2022/02/15 09:15:18;;;;;;;20.90;12.88;;;;;;;7.76;91.23;100004.19;6241782;23;20047;-91
2022/02/15 09:17:48;;;;;;;17.70;12.23;;;;;;;8.27;89.39;100060.94;6244168;23;20095;-92
2022/02/15 09:20:15;;;;;;;20.13;12.13;;;;;;;8.29;89.13;100062.59;6232171;22;20414;-93
2022/02/15 09:22:42;;;;;;;18.02;12.27;;;;;;;8.34;88.75;100058.00;6247594;22;20071;-94
2022/02/15 09:25:13;;;;;;;17.60;12.23;;;;;;;8.13;88.04;100024.59;6272892;22;20016;-91
2022/02/15 09:27:41;;;;;;;20.80;11.87;;;;;;;8.44;88.17;100079.56;6275856;22;20020;-92
2022/02/15 09:30:10;;;;;;;17.88;11.90;;;;;;;8.46;86.48;100063.69;6271657;22;20099;-89
2022/02/15 09:32:37;;;;;;;17.52;11.25;;;;;;;8.47;86.91;100063.63;6280671;22;20036;-91
2022/02/15 09:35:07;;;;;;;17.33;11.35;;;;;;;8.62;85.84;100073.50;6284837;22;20031;-92
2022/02/15 09:37:47;;;;;;;18.20;10.80;;;;;;;8.31;85.22;100058.13;6281809;22;20027;-91
2022/02/15 09:40:14;;;;;;;16.52;10.45;;;;;;;8.29;85.43;100056.47;6255170;22;20015;-90
2022/02/15 09:42:44;;;;;;;13.98;9.48;;;;;;;8.20;85.43;100057.69;6281532;22;20024;-90
2022/02/15 09:45:16;;;;;;;16.17;10.27;;;;;;;7.97;86.05;100034.94;6279691;22;20043;-90
2022/02/15 09:47:44;;;;;;;16.27;9.90;;;;;;;8.07;87.15;100048.59;6282690;22;20023;-92
2022/02/15 09:50:20;;;;;;;14.73;9.93;;;;;;;8.40;86.11;100104.38;6282821;22;20020;-90
2022/02/15 09:52:56;;;;;;;14.63;9.20;;;;;;;8.12;85.98;100046.63;6236025;22;20097;-91
2022/02/15 09:55:26;;;;;;;15.05;9.00;;;;;;;8.45;85.07;100112.97;6283060;22;20020;-90
2022/02/15 09:57:56;;;;;;;14.00;8.23;;;;;;;8.22;84.40;100055.00;6282796;22;20024;-88
2022/02/15 10:00:26;;;;;;;13.02;9.10;;;;;;;8.16;85.37;100082.50;6280780;22;20081;-90
2022/02/15 10:02:53;;;;;;;11.38;8.63;;;;;;;8.35;85.77;100117.75;6280410;22;20024;-91
2022/02/15 10:05:37;;;;;;;11.88;8.50;;;;;;;8.21;85.97;100100.75;6275657;22;20027;-90
2022/02/15 10:08:05;;;;;;;12.32;8.02;;;;;;;8.08;85.86;100072.25;6278611;22;20012;-90
2022/02/15 10:10:36;;;;;;;12.38;8.77;;;;;;;8.23;86.46;100091.84;6274627;22;20491;-90
2022/02/15 10:13:11;;;;;;;11.73;7.47;;;;;;;8.28;86.13;100084.63;6254020;22;20026;-92
2022/02/15 10:15:52;;;;;;;10.43;7.78;;;;;;;8.66;85.02;100117.28;6277324;22;20031;-91
2022/02/15 10:18:25;;;;;;;13.18;7.88;;;;;;;8.75;84.26;100122.19;6278944;22;20046;-91
2022/02/15 10:21:00;;;;;;;12.57;8.10;;;;;;;8.86;83.79;100118.22;6280395;22;20046;-90
2022/02/15 10:23:30;;;;;;;11.80;7.18;;;;;;;9.05;81.59;100113.81;6278618;22;20016;-91
2022/02/15 10:26:05;;;;;;;10.10;7.15;;;;;;;9.07;81.37;100106.69;6279780;22;20015;-90
2022/02/15 10:28:38;;;;;;;12.15;7.07;;;;;;;9.12;81.17;100115.28;6279341;22;20031;-90
2022/02/15 10:31:06;;;;;;;11.88;6.75;;;;;;;8.62;81.20;100062.94;6252443;22;20015;-91
2022/02/15 10:34:01;;;;;;;8.80;6.13;;;;;;;8.77;81.30;100104.50;6250542;22;20015;-90
2022/02/15 10:36:32;;;;;;;10.10;5.80;;;;;;;8.79;80.26;100120.28;6258917;22;20024;-89
2022/02/15 10:39:01;;;;;;;10.15;6.65;;;;;;;8.69;80.53;100118.94;6280634;22;20416;-90
2022/02/15 10:41:43;;;;;;;8.40;5.47;;;;;;;8.49;80.24;100080.25;6280146;22;20020;-90
2022/02/15 10:44:17;;;;;;;9.20;5.57;;;;;;;8.71;79.25;100103.91;6276172;22;20459;-91
2022/02/15 10:46:49;;;;;;;6.07;4.90;;;;;;;8.68;78.89;100106.66;6247974;22;20465;-91
2022/02/15 10:49:21;;;;;;;8.20;4.10;;;;;;;8.81;77.65;100125.50;6275822;22;20007;-92
2022/02/15 10:51:51;;;;;;;7.18;3.72;;;;;;;8.58;75.81;100095.66;6274443;22;20126;-90
2022/02/15 10:54:21;;;;;;;4.85;2.08;;;;;;;8.62;73.02;100088.47;6273603;22;20062;-92
2022/02/15 10:56:59;;;;;;;6.82;2.92;;;;;;;9.12;71.91;100125.84;6249908;22;20016;-91
2022/02/15 10:59:27;;;;;;;3.35;2.22;;;;;;;9.35;68.84;100116.84;6275515;22;20104;-90
2022/02/15 11:01:56;;;;;;;4.47;2.38;;;;;;;9.43;67.51;100105.00;6249522;22;20054;-91
2022/02/15 11:04:38;;;;;;;;;;;;;;;;;;;;;
2022/02/15 11:07:28;;;;;;;4.55;2.10;;;;;;;9.61;64.67;100083.88;6280339;22;20697;-89
2022/02/15 11:10:19;;;;;;;3.80;2.00;;;;;;;10.01;64.48;100139.25;6278307;22;20038;-89
2022/02/15 11:13:18;;;;;;;3.40;1.95;;;;;;;10.06;62.82;100145.16;6263402;22;20024;-94
2022/02/15 11:16:01;;;;;;;6.78;2.83;;;;;;;9.70;64.02;100115.19;6261026;22;20015;-93
2022/02/15 11:18:45;;;;;;;4.35;2.42;;;;;;;9.68;63.69;100106.47;6279590;22;20030;-92
2022/02/15 11:21:27;;;;;;;3.83;2.42;;;;;;;9.75;63.56;100119.34;6278296;22;20031;-90
2022/02/15 11:24:07;;;;;;;4.80;2.65;;;;;;;9.89;63.18;100105.44;6276286;22;20016;-91
2022/02/15 11:26:43;;;;;;;3.13;2.17;;;;;;;10.06;59.46;100099.34;6282001;22;20034;-91
2022/02/15 11:29:25;;;;;;;3.30;2.25;;;;;;;10.35;58.23;100140.25;6283770;22;20012;-91
2022/02/15 11:31:53;;;;;;;4.10;2.08;;;;;;;10.21;58.30;100125.06;6281633;22;20046;-93
2022/02/15 11:34:31;;;;;;;2.60;1.50;;;;;;;10.45;57.10;100134.41;6284614;22;20023;-92
2022/02/15 11:37:25;;;;;;;4.60;1.80;;;;;;;10.63;55.74;100129.13;6282879;22;20330;-94
2022/02/15 11:40:35;;;;;;;2.78;1.50;;;;;;;10.67;55.48;100120.94;6285628;22;20024;-92
2022/02/15 11:43:16;;;;;;;2.47;1.50;;;;;;;10.87;54.10;100114.59;6285688;22;20012;-93
2022/02/15 11:45:48;;;;;;;2.60;1.30;;;;;;;11.15;52.92;100148.44;6263014;22;20023;-92
2022/02/15 11:48:45;;;;;;;3.67;1.55;;;;;;;11.00;53.37;100115.69;6288259;22;20020;-93